createdAt,value
2022-09-23T00:01:58.853Z,7.10
2022-09-23T00:04:26.123Z,7.00
2022-09-23T00:06:53.031Z,7.00
2022-09-23T00:09:19.956Z,6.90
2022-09-23T00:11:46.884Z,6.80
2022-09-23T00:14:13.917Z,6.80
2022-09-23T00:16:40.990Z,6.80
2022-09-23T00:19:08.648Z,6.80
2022-09-23T00:21:36.046Z,6.90
2022-09-23T00:24:02.907Z,6.90
2022-09-23T00:26:29.897Z,7.00
2022-09-23T00:28:56.745Z,7.00
2022-09-23T00:31:26.127Z,7.00
2022-09-23T00:33:56.939Z,7.10
2022-09-23T00:36:24.571Z,7.20
2022-09-23T00:38:51.482Z,7.00
2022-09-23T00:41:18.362Z,6.60
2022-09-23T00:43:45.375Z,6.30
2022-09-23T00:46:14.915Z,6.20
2022-09-23T00:48:42.940Z,6.10
2022-09-23T00:51:11.154Z,6.10
2022-09-23T00:53:38.819Z,6.10
2022-09-23T00:56:08.316Z,6.10
2022-09-23T00:58:37.217Z,6.30
2022-09-23T01:01:04.249Z,6.50
2022-09-23T01:03:31.785Z,6.60
2022-09-23T01:05:58.897Z,6.80
2022-09-23T01:08:27.220Z,6.90
2022-09-23T01:11:15.529Z,7.00
2022-09-23T01:13:51.625Z,7.10
2022-09-23T01:16:24.535Z,7.00
2022-09-23T01:19:05.567Z,7.00
2022-09-23T01:21:40.392Z,7.10
2022-09-23T01:24:13.306Z,7.00
2022-09-23T01:26:43.258Z,6.90
2022-09-23T01:29:29.079Z,6.90
2022-09-23T01:32:03.213Z,6.80
2022-09-23T01:34:36.367Z,6.80
2022-09-23T01:37:10.492Z,6.80
2022-09-23T01:39:39.115Z,6.80
2022-09-23T01:42:06.393Z,6.80
2022-09-23T01:44:43.246Z,6.80
2022-09-23T01:47:14.457Z,6.60
2022-09-23T01:49:59.233Z,6.40
2022-09-23T01:52:29.248Z,6.30
2022-09-23T01:55:13.591Z,6.20
2022-09-23T01:57:47.185Z,6.20
2022-09-23T02:00:15.528Z,6.10
2022-09-23T02:02:51.705Z,6.00
2022-09-23T02:05:24.683Z,5.90
2022-09-23T02:07:59.996Z,5.80
2022-09-23T02:10:37.793Z,5.90
2022-09-23T02:13:08.575Z,6.00
2022-09-23T02:15:38.249Z,6.10
2022-09-23T02:18:09.991Z,6.30
2022-09-23T02:20:39.780Z,6.50
2022-09-23T02:23:08.946Z,6.70
2022-09-23T02:25:40.167Z,6.80
2022-09-23T02:28:14.298Z,6.90
2022-09-23T02:30:45.268Z,7.00
2022-09-23T02:33:17.357Z,6.90
2022-09-23T02:35:55.708Z,7.00
2022-09-23T02:38:26.097Z,6.80
2022-09-23T02:40:53.047Z,6.60
2022-09-23T02:43:30.140Z,6.50
2022-09-23T02:45:57.056Z,6.60
2022-09-23T02:48:30.461Z,6.70
2022-09-23T02:50:58.191Z,6.70
2022-09-23T02:53:25.604Z,6.70
2022-09-23T02:55:52.595Z,6.80
2022-09-23T02:58:19.717Z,6.80
2022-09-23T03:01:00.085Z,6.80
2022-09-23T03:03:37.685Z,6.90
2022-09-23T03:06:10.221Z,7.00
2022-09-23T03:08:37.193Z,7.00
2022-09-23T03:11:08.747Z,7.10
2022-09-23T03:13:42.926Z,7.10
2022-09-23T03:16:19.936Z,7.10
2022-09-23T03:18:53.132Z,7.20
2022-09-23T03:21:20.033Z,7.00
2022-09-23T03:23:48.017Z,6.90
2022-09-23T03:26:18.813Z,6.80
2022-09-23T03:28:46.047Z,6.50
2022-09-23T03:31:13.631Z,6.40
2022-09-23T03:33:47.246Z,6.40
2022-09-23T03:36:35.035Z,6.50
2022-09-23T03:39:04.489Z,6.50
2022-09-23T03:41:34.223Z,6.50
2022-09-23T03:44:02.325Z,6.40
2022-09-23T03:46:30.315Z,6.40
2022-09-23T03:48:59.905Z,6.60
2022-09-23T03:51:26.898Z,6.60
2022-09-23T03:53:53.846Z,6.70
2022-09-23T03:56:21.079Z,6.80
2022-09-23T03:58:49.024Z,6.80
2022-09-23T04:01:16.071Z,6.80
2022-09-23T04:03:43.547Z,6.70
2022-09-23T04:06:10.520Z,6.60
2022-09-23T04:08:37.973Z,6.40
2022-09-23T04:11:05.085Z,6.40
2022-09-23T04:13:32.290Z,6.40
2022-09-23T04:15:59.487Z,6.40
2022-09-23T04:18:26.811Z,6.30
2022-09-23T04:20:57.220Z,6.40
2022-09-23T04:23:24.742Z,6.30
2022-09-23T04:25:52.265Z,6.20
2022-09-23T04:28:19.706Z,6.10
2022-09-23T04:30:47.414Z,5.90
2022-09-23T04:33:14.910Z,5.70
2022-09-23T04:35:43.599Z,5.50
2022-09-23T04:38:11.287Z,5.50
2022-09-23T04:40:38.376Z,5.40
2022-09-23T04:43:05.414Z,5.20
2022-09-23T04:45:32.458Z,5.10
2022-09-23T04:47:59.464Z,5.10
2022-09-23T04:50:26.401Z,5.20
2022-09-23T04:52:54.123Z,5.20
2022-09-23T04:55:21.964Z,5.20
2022-09-23T04:57:48.916Z,5.30
2022-09-23T05:00:15.915Z,5.30
2022-09-23T05:02:47.033Z,5.40
2022-09-23T05:05:14.566Z,5.50
2022-09-23T05:07:41.535Z,5.60
2022-09-23T05:10:08.882Z,5.70
2022-09-23T05:12:35.755Z,5.70
2022-09-23T05:15:02.722Z,5.80
2022-09-23T05:17:31.319Z,5.90
2022-09-23T05:19:58.676Z,6.40
2022-09-23T05:22:26.696Z,7.60
2022-09-23T05:24:53.653Z,9.00
2022-09-23T05:27:20.938Z,10.30
2022-09-23T05:29:48.975Z,10.90
2022-09-23T05:32:15.898Z,11.30
2022-09-23T05:34:43.279Z,11.50
2022-09-23T05:37:10.201Z,11.90
2022-09-23T05:39:37.303Z,13.20
2022-09-23T05:42:04.933Z,14.30
2022-09-23T05:44:31.869Z,15.10
2022-09-23T05:46:58.882Z,16.00
2022-09-23T05:49:42.566Z,16.50
2022-09-23T05:52:12.739Z,17.30
2022-09-23T05:54:40.387Z,18.40
2022-09-23T05:57:07.240Z,18.80
2022-09-23T05:59:34.151Z,19.50
2022-09-23T06:02:01.779Z,19.80
2022-09-23T06:04:28.768Z,20.50
2022-09-23T06:06:59.220Z,20.90
2022-09-23T06:09:30.824Z,20.60
2022-09-23T06:12:01.138Z,20.90
2022-09-23T06:14:28.879Z,21.80
2022-09-23T06:16:55.797Z,22.00
2022-09-23T06:19:22.653Z,22.80
2022-09-23T06:21:49.863Z,23.80
2022-09-23T06:24:19.941Z,24.90
2022-09-23T06:26:48.392Z,25.50
2022-09-23T06:29:15.208Z,25.70
2022-09-23T06:31:43.555Z,25.70
2022-09-23T06:34:13.379Z,25.60
2022-09-23T06:36:45.882Z,25.60
2022-09-23T06:39:14.085Z,25.20
2022-09-23T06:41:41.260Z,24.90
2022-09-23T06:44:12.979Z,25.40
2022-09-23T06:46:40.144Z,25.70
2022-09-23T06:49:07.066Z,25.90
2022-09-23T06:51:34.741Z,26.50
2022-09-23T06:54:01.768Z,26.80
2022-09-23T06:56:28.899Z,27.20
2022-09-23T06:58:55.793Z,27.70
2022-09-23T07:01:23.399Z,27.20
2022-09-23T07:03:50.556Z,27.30
2022-09-23T07:06:17.565Z,27.00
2022-09-23T07:08:46.919Z,25.60
2022-09-23T07:11:14.323Z,26.40
2022-09-23T07:13:42.368Z,26.30
2022-09-23T07:16:10.176Z,27.00
2022-09-23T07:18:37.731Z,26.80
2022-09-23T07:21:05.756Z,26.80
2022-09-23T07:23:33.684Z,27.40
2022-09-23T07:26:00.997Z,28.40
2022-09-23T07:28:29.276Z,28.80
2022-09-23T07:31:00.394Z,29.20
2022-09-23T07:33:33.120Z,27.70
2022-09-23T07:36:07.635Z,27.30
2022-09-23T07:38:34.927Z,26.90
2022-09-23T07:41:03.344Z,26.80
2022-09-23T07:43:32.535Z,24.30
2022-09-23T07:46:00.555Z,24.20
2022-09-23T07:48:31.933Z,23.90
2022-09-23T07:51:01.033Z,23.60
2022-09-23T07:53:28.686Z,22.50
2022-09-23T07:55:56.896Z,21.50
2022-09-23T07:58:23.838Z,21.00
2022-09-23T08:00:52.564Z,20.50
2022-09-23T08:03:19.852Z,20.60
2022-09-23T08:05:46.767Z,19.90
2022-09-23T08:08:14.310Z,19.50
2022-09-23T08:10:41.274Z,19.30
2022-09-23T08:13:08.232Z,18.60
2022-09-23T08:15:35.220Z,17.80
2022-09-23T08:18:02.167Z,17.10
2022-09-23T08:20:47.104Z,15.60
2022-09-23T08:23:15.624Z,14.70
2022-09-23T08:25:45.476Z,13.40
2022-09-23T08:28:18.870Z,12.70
2022-09-23T08:30:48.926Z,12.50
2022-09-23T08:33:20.965Z,12.10
2022-09-23T08:35:50.316Z,12.10
2022-09-23T08:38:17.378Z,12.30
2022-09-23T08:40:47.520Z,12.40
2022-09-23T08:43:26.423Z,12.30
2022-09-23T08:45:55.454Z,11.90
2022-09-23T08:48:34.549Z,12.10
2022-09-23T08:51:06.185Z,12.10
2022-09-23T08:53:35.335Z,12.10
2022-09-23T08:56:07.405Z,12.20
2022-09-23T08:58:44.110Z,11.90
2022-09-23T09:01:14.157Z,11.40
2022-09-23T09:03:41.359Z,10.90
2022-09-23T09:06:12.940Z,11.10
2022-09-23T09:08:40.196Z,11.40
2022-09-23T09:11:07.199Z,11.40
2022-09-23T09:13:35.604Z,11.20
2022-09-23T09:16:14.754Z,11.10
2022-09-23T09:18:50.071Z,11.40
2022-09-23T09:21:17.082Z,11.30
2022-09-23T09:23:50.254Z,11.10
2022-09-23T09:26:35.918Z,11.10
2022-09-23T09:29:17.265Z,11.60
2022-09-23T09:31:51.819Z,11.90
2022-09-23T09:34:57.541Z,11.50
2022-09-23T09:37:36.866Z,11.30
2022-09-23T09:40:03.960Z,11.70
2022-09-23T09:42:40.092Z,12.00
2022-09-23T09:45:07.126Z,12.30
2022-09-23T09:47:37.057Z,12.70
2022-09-23T09:50:03.935Z,12.80
2022-09-23T09:52:31.870Z,12.60
2022-09-23T09:55:13.990Z,12.40
2022-09-23T09:58:05.880Z,12.50
2022-09-23T10:00:32.785Z,12.80
2022-09-23T10:03:15.143Z,13.10
2022-09-23T10:05:45.253Z,13.30
2022-09-23T10:08:21.591Z,13.70
2022-09-23T10:10:55.223Z,13.80
2022-09-23T10:13:24.375Z,13.60
2022-09-23T10:15:54.938Z,13.30
2022-09-23T10:18:28.421Z,13.20
2022-09-23T10:21:15.391Z,13.30
2022-09-23T10:23:44.036Z,13.50
2022-09-23T10:26:12.416Z,13.50
2022-09-23T10:28:46.360Z,13.50
2022-09-23T10:31:15.043Z,13.50
2022-09-23T10:33:47.078Z,13.80
2022-09-23T10:36:17.921Z,13.90
2022-09-23T10:38:45.637Z,14.10
2022-09-23T10:41:35.720Z,14.00
2022-09-23T10:44:39.640Z,13.90
2022-09-23T10:47:34.229Z,13.70
2022-09-23T10:50:24.257Z,13.80
2022-09-23T10:53:07.487Z,13.00
2022-09-23T10:55:37.479Z,12.70
2022-09-23T10:58:15.042Z,12.70
2022-09-23T11:01:06.108Z,12.60
2022-09-23T11:03:46.049Z,12.40
2022-09-23T11:06:32.094Z,12.80
2022-09-23T11:09:02.250Z,13.30
2022-09-23T11:11:34.204Z,13.60
2022-09-23T11:14:15.949Z,13.90
2022-09-23T11:16:49.084Z,14.00
2022-09-23T11:19:19.287Z,14.00
2022-09-23T11:21:46.288Z,14.10
2022-09-23T11:24:22.724Z,14.10
2022-09-23T11:26:53.226Z,14.30
2022-09-23T11:29:20.108Z,14.20
2022-09-23T11:31:50.126Z,14.40
2022-09-23T11:34:34.276Z,14.50
2022-09-23T11:37:01.185Z,14.70
2022-09-23T11:39:57.545Z,14.80
2022-09-23T11:42:26.398Z,14.80
2022-09-23T11:44:58.401Z,14.70
2022-09-23T11:47:39.818Z,14.90
2022-09-23T11:50:10.944Z,15.00
2022-09-23T11:52:41.691Z,15.00
2022-09-23T11:55:27.222Z,15.20
2022-09-23T11:57:56.435Z,15.40
2022-09-23T12:00:26.684Z,15.50
2022-09-23T12:03:04.198Z,15.30
2022-09-23T12:05:40.236Z,15.20
2022-09-23T12:08:12.738Z,15.40
2022-09-23T12:10:46.372Z,15.50
2022-09-23T12:13:19.328Z,15.60
2022-09-23T12:15:46.286Z,15.30
2022-09-23T12:18:13.134Z,15.40
2022-09-23T12:20:43.202Z,15.60
2022-09-23T12:23:16.153Z,15.50
2022-09-23T12:25:46.812Z,15.30
2022-09-23T12:28:16.677Z,15.20
2022-09-23T12:30:44.284Z,15.40
2022-09-23T12:33:24.565Z,15.60
2022-09-23T12:35:55.993Z,15.80
2022-09-23T12:38:25.392Z,15.60
2022-09-23T12:40:54.269Z,15.70
2022-09-23T12:43:29.916Z,15.60
2022-09-23T12:46:16.676Z,15.70
2022-09-23T12:48:44.838Z,16.00
2022-09-23T12:51:16.483Z,16.20
2022-09-23T12:53:55.704Z,16.20
2022-09-23T12:56:27.275Z,16.30
2022-09-23T12:58:58.097Z,16.40
2022-09-23T13:01:26.672Z,16.40
2022-09-23T13:04:16.840Z,16.50
2022-09-23T13:06:53.114Z,16.60
2022-09-23T13:09:25.681Z,16.40
2022-09-23T13:11:53.327Z,16.40
2022-09-23T13:14:27.415Z,16.30
2022-09-23T13:16:58.615Z,16.40
2022-09-23T13:19:25.652Z,16.40
2022-09-23T13:22:04.077Z,16.50
2022-09-23T13:24:47.924Z,16.60
2022-09-23T13:27:17.883Z,16.50
2022-09-23T13:29:47.902Z,16.50
2022-09-23T13:32:19.383Z,16.60
2022-09-23T13:34:52.997Z,16.10
2022-09-23T13:37:22.709Z,16.00
2022-09-23T13:39:50.275Z,16.00
2022-09-23T13:42:27.193Z,15.80
2022-09-23T13:45:00.478Z,15.80
2022-09-23T13:47:29.190Z,15.90
2022-09-23T13:49:56.476Z,16.00
2022-09-23T13:52:28.017Z,16.00
2022-09-23T13:54:54.897Z,15.90
2022-09-23T13:57:29.827Z,15.90
2022-09-23T14:00:00.944Z,16.00
2022-09-23T14:02:28.774Z,16.10
2022-09-23T14:04:59.164Z,16.00
2022-09-23T14:07:26.713Z,15.90
2022-09-23T14:09:55.907Z,15.80
2022-09-23T14:12:23.075Z,15.60
2022-09-23T14:14:52.053Z,15.20
2022-09-23T14:17:20.824Z,14.90
2022-09-23T14:19:47.774Z,14.80
2022-09-23T14:22:25.526Z,14.80
2022-09-23T14:24:53.007Z,14.80
2022-09-23T14:27:39.850Z,14.90
2022-09-23T14:30:07.297Z,15.10
2022-09-23T14:32:34.349Z,15.40
2022-09-23T14:35:01.362Z,15.50
2022-09-23T14:37:48.397Z,15.70
2022-09-23T14:40:19.974Z,15.70
2022-09-23T14:42:48.873Z,15.90
2022-09-23T14:45:17.691Z,15.90
2022-09-23T14:47:46.580Z,15.60
2022-09-23T14:50:36.841Z,15.40
2022-09-23T14:53:04.697Z,15.20
2022-09-23T14:55:31.648Z,14.70
2022-09-23T14:58:02.781Z,14.40
2022-09-23T15:00:29.831Z,14.20
2022-09-23T15:03:04.696Z,14.20
2022-09-23T15:05:37.748Z,14.00
2022-09-23T15:08:05.836Z,13.90
2022-09-23T15:10:37.907Z,13.70
2022-09-23T15:13:09.334Z,13.70
2022-09-23T15:15:36.502Z,13.60
2022-09-23T15:18:07.635Z,13.70
2022-09-23T15:20:34.933Z,13.80
2022-09-23T15:23:02.175Z,13.70
2022-09-23T15:25:33.443Z,13.60
2022-09-23T15:28:00.862Z,13.50
2022-09-23T15:30:27.940Z,13.30
2022-09-23T15:32:54.981Z,13.10
2022-09-23T15:35:23.765Z,13.00
2022-09-23T15:37:51.629Z,13.00
2022-09-23T15:40:24.563Z,13.00
2022-09-23T15:42:54.329Z,13.00
2022-09-23T15:45:26.256Z,12.90
2022-09-23T15:47:53.456Z,12.70
2022-09-23T15:50:20.547Z,12.60
2022-09-23T15:52:47.520Z,12.50
2022-09-23T15:55:15.874Z,12.50
2022-09-23T15:57:42.919Z,12.40
2022-09-23T16:00:12.331Z,12.40
2022-09-23T16:02:40.212Z,12.30
2022-09-23T16:05:07.871Z,12.30
2022-09-23T16:07:36.499Z,12.20
2022-09-23T16:10:03.711Z,12.10
2022-09-23T16:12:30.725Z,12.00
2022-09-23T16:14:57.845Z,11.90
2022-09-23T16:17:29.404Z,11.80
2022-09-23T16:19:56.358Z,11.70
2022-09-23T16:22:23.275Z,11.70
2022-09-23T16:24:50.168Z,11.70
2022-09-23T16:27:18.593Z,11.70
2022-09-23T16:29:45.472Z,11.70
2022-09-23T16:32:12.914Z,11.70
2022-09-23T16:34:39.770Z,11.60
2022-09-23T16:37:07.181Z,11.60
2022-09-23T16:39:34.209Z,11.60
2022-09-23T16:42:02.242Z,11.60
2022-09-23T16:44:30.002Z,11.60
2022-09-23T16:46:57.783Z,11.40
2022-09-23T16:49:24.861Z,11.40
2022-09-23T16:51:51.706Z,11.30
2022-09-23T16:54:20.401Z,11.20
2022-09-23T16:56:47.306Z,11.00
2022-09-23T16:59:14.681Z,11.00
2022-09-23T17:02:00.357Z,11.00
2022-09-23T17:04:27.829Z,11.10
2022-09-23T17:06:56.073Z,11.10
2022-09-23T17:09:24.882Z,11.10
2022-09-23T17:12:04.367Z,11.10
2022-09-23T17:14:31.587Z,11.00
2022-09-23T17:16:58.974Z,11.00
2022-09-23T17:19:25.954Z,11.00
2022-09-23T17:21:53.257Z,11.00
2022-09-23T17:24:20.156Z,11.10
2022-09-23T17:26:50.663Z,11.00
2022-09-23T17:29:19.584Z,11.00
2022-09-23T17:31:46.794Z,11.00
2022-09-23T17:34:13.830Z,10.90
2022-09-23T17:36:40.783Z,10.90
2022-09-23T17:39:07.796Z,10.90
2022-09-23T17:41:34.802Z,10.90
2022-09-23T17:44:01.817Z,10.90
2022-09-23T17:46:30.247Z,10.80
2022-09-23T17:48:57.451Z,10.60
2022-09-23T17:51:25.559Z,10.40
2022-09-23T17:53:52.747Z,10.20
2022-09-23T17:56:19.879Z,10.00
2022-09-23T17:58:47.862Z,9.90
2022-09-23T18:01:16.374Z,9.80
2022-09-23T18:03:43.660Z,9.70
2022-09-23T18:06:12.669Z,9.60
2022-09-23T18:08:40.397Z,9.50
2022-09-23T18:11:14.485Z,9.50
2022-09-23T18:13:41.599Z,9.30
2022-09-23T18:16:08.523Z,9.30
2022-09-23T18:18:35.471Z,9.20
2022-09-23T18:21:03.063Z,9.10
2022-09-23T18:23:30.158Z,9.00
2022-09-23T18:25:57.047Z,8.90
2022-09-23T18:28:23.903Z,8.80
2022-09-23T18:30:58.117Z,8.80
2022-09-23T18:33:25.137Z,8.70
2022-09-23T18:35:52.085Z,8.60
2022-09-23T18:38:19.216Z,8.50
2022-09-23T18:40:50.061Z,8.50
2022-09-23T18:43:19.693Z,8.40
2022-09-23T18:45:54.447Z,8.50
2022-09-23T18:48:40.252Z,8.60
2022-09-23T18:51:08.132Z,8.70
2022-09-23T18:53:36.028Z,8.90
2022-09-23T18:56:07.517Z,8.90
2022-09-23T18:58:34.573Z,8.90
2022-09-23T19:01:09.056Z,8.90
2022-09-23T19:03:36.565Z,8.90
2022-09-23T19:06:03.575Z,8.90
2022-09-23T19:08:30.473Z,8.70
2022-09-23T19:10:57.728Z,8.30
2022-09-23T19:13:24.593Z,8.00
2022-09-23T19:15:51.561Z,7.80
2022-09-23T19:18:20.389Z,7.60
2022-09-23T19:20:51.401Z,7.70
2022-09-23T19:23:19.420Z,7.70
2022-09-23T19:25:46.856Z,7.80
2022-09-23T19:28:14.306Z,7.80
2022-09-23T19:30:41.256Z,7.60
2022-09-23T19:33:09.226Z,7.50
2022-09-23T19:35:37.520Z,7.50
2022-09-23T19:38:04.506Z,7.50
2022-09-23T19:40:31.499Z,7.50
2022-09-23T19:42:59.076Z,7.60
2022-09-23T19:45:27.268Z,7.90
2022-09-23T19:47:56.376Z,8.10
2022-09-23T19:50:23.395Z,8.20
2022-09-23T19:52:53.295Z,8.40
2022-09-23T19:55:20.318Z,8.50
2022-09-23T19:57:47.475Z,8.60
2022-09-23T20:00:15.400Z,8.60
2022-09-23T20:02:42.707Z,8.60
2022-09-23T20:05:12.035Z,8.60
2022-09-23T20:07:40.471Z,8.60
2022-09-23T20:10:08.247Z,8.60
2022-09-23T20:12:35.377Z,8.60
2022-09-23T20:15:02.277Z,8.60
2022-09-23T20:17:30.632Z,8.60
2022-09-23T20:19:58.036Z,8.30
2022-09-23T20:22:28.460Z,8.10
2022-09-23T20:24:58.060Z,7.90
2022-09-23T20:27:25.633Z,7.70
2022-09-23T20:29:52.755Z,7.70
2022-09-23T20:32:19.663Z,7.70
2022-09-23T20:34:49.942Z,7.70
2022-09-23T20:37:21.103Z,7.80
2022-09-23T20:39:48.228Z,7.90
2022-09-23T20:42:16.457Z,7.90
2022-09-23T20:44:44.312Z,8.00
2022-09-23T20:47:14.659Z,8.00
2022-09-23T20:49:44.960Z,8.00
2022-09-23T20:52:12.768Z,8.00
2022-09-23T20:54:39.851Z,8.00
2022-09-23T20:57:06.889Z,8.10
2022-09-23T20:59:34.533Z,8.10
2022-09-23T21:02:01.799Z,8.10
2022-09-23T21:04:29.313Z,8.10
2022-09-23T21:07:01.172Z,8.10
2022-09-23T21:09:29.141Z,8.10
2022-09-23T21:11:56.072Z,8.10
2022-09-23T21:14:23.232Z,8.10
2022-09-23T21:16:54.901Z,8.10
2022-09-23T21:19:21.844Z,8.10
2022-09-23T21:21:48.925Z,8.10
2022-09-23T21:24:48.732Z,8.20
2022-09-23T21:27:04.068Z,8.20
2022-09-23T21:29:30.973Z,8.10
2022-09-23T21:31:57.861Z,8.00
2022-09-23T21:34:28.313Z,7.80
2022-09-23T21:36:55.578Z,7.70
2022-09-23T21:39:22.486Z,7.60
2022-09-23T21:41:51.351Z,7.60
2022-09-23T21:44:18.382Z,7.50
2022-09-23T21:46:45.321Z,7.50
2022-09-23T21:49:12.251Z,7.50
2022-09-23T21:51:41.281Z,7.60
2022-09-23T21:54:11.767Z,7.70
2022-09-23T21:56:38.970Z,7.70
2022-09-23T21:59:07.775Z,7.70
2022-09-23T22:01:36.562Z,7.70
2022-09-23T22:04:22.168Z,7.70
2022-09-23T22:06:49.227Z,7.80
2022-09-23T22:09:17.625Z,7.80
2022-09-23T22:12:03.068Z,7.80
2022-09-23T22:14:30.735Z,7.60
2022-09-23T22:17:02.387Z,7.50
2022-09-23T22:19:32.937Z,7.50
2022-09-23T22:22:00.229Z,7.50
2022-09-23T22:24:27.313Z,7.50
2022-09-23T22:26:54.273Z,7.60
2022-09-23T22:29:40.068Z,7.60
2022-09-23T22:32:28.721Z,7.60
2022-09-23T22:34:56.140Z,7.70
2022-09-23T22:37:27.736Z,7.70
2022-09-23T22:39:55.009Z,7.60
2022-09-23T22:42:22.622Z,7.60
2022-09-23T22:44:50.210Z,7.50
2022-09-23T22:47:20.648Z,7.30
2022-09-23T22:49:48.174Z,7.30
2022-09-23T22:52:21.072Z,7.20
2022-09-23T22:54:48.214Z,7.20
2022-09-23T22:57:15.419Z,7.00
2022-09-23T22:59:48.255Z,6.90
2022-09-23T23:02:18.300Z,6.90
2022-09-23T23:04:48.972Z,6.90
2022-09-23T23:07:20.449Z,6.90
2022-09-23T23:09:50.867Z,6.90
2022-09-23T23:12:20.219Z,7.00
2022-09-23T23:14:47.891Z,7.10
2022-09-23T23:17:15.022Z,7.30
2022-09-23T23:19:42.253Z,7.40
2022-09-23T23:22:09.206Z,7.30
2022-09-23T23:24:36.585Z,7.30
2022-09-23T23:27:03.490Z,7.30
2022-09-23T23:29:30.463Z,7.20
2022-09-23T23:31:57.340Z,7.30
2022-09-23T23:34:24.400Z,7.30
2022-09-23T23:36:57.349Z,7.40
2022-09-23T23:39:24.860Z,7.50
2022-09-23T23:41:55.847Z,7.50
2022-09-23T23:44:23.976Z,7.60
2022-09-23T23:46:51.237Z,7.60
2022-09-23T23:49:18.175Z,7.60
2022-09-23T23:51:45.067Z,7.70
2022-09-23T23:54:12.250Z,7.70
2022-09-23T23:56:39.450Z,7.80
2022-09-23T23:59:06.632Z,7.80
